Atoka, OK

12:52 PM CST on January 29, 2015 (GMT -0600)
Eaker | Change Station
CLOSE
Current Station
Airport
Location: Durant,
Elevation: 699 ft
Nearby Weather Stations

Elev 699 ft 33.94 °N, 96.39 °W | Updated 17 minutes ago

Partly Cloudy
Partly Cloudy
61 °F
Feels Like 61 °F
N
15
Wind Variable Wind from NNW
Gusts 18 mph

Today
High -- | Low -- °F
--% Chance of Precip.
Yesterday
High -- | Low -- °F
Precip. -- in
7:24 AM 5:51 PM
Waxing Gibbous, 76% visible
Pressure 30.31 in
Visibility 10.0 miles
Clouds Clear
Dew Point 39 °F
Humidity 45%
Rainfall 0.00 in
Snow Depth Not available.
UV 5 out of 12
Pollen 8.30 out of 12
Air Quality Not available.
Flu Activity Not available.
METAR KDUA 291835Z AUTO 33013G16KT 250V360 10SM CLR 16/04 A3031 RMK AO2

More Conditions Fewer Conditions

Pressure 30.31 in
Visibility 10.0 miles
Clouds Clear
Dew Point 39 °F
Humidity 45%
Rainfall 0.00 in
Snow Depth Not available.
UV 5 out of 12
Pollen 8.30 out of 12
Air Quality Not available.
Flu Activity Not available.
METAR KDUA 291835Z AUTO 33013G16KT 250V360 10SM CLR 16/04 A3031 RMK AO2

More Conditions Fewer Conditions

10-Day Weather Forecast

Almanac

Astronomy

Jan. 29, 2015 Rise Set
Actual Time
Civil Twilight
Nautical Twilight
Astronomical Twilight
Moon
Length of Visible Light
Length of Day
Tomorrow will be .
, % of the Moon is Illuminated

Today's Extremes

State Highs State Lows

Community

WunderPhotos

Upload Photos

1,791,530 photos uploaded!

WunderBlogs® & News

Nearby

Air Quality

  Air Quality AQ Index Pollutant
Not available.

Snow Depth

Station Depth Elevation

Earthquake Activity

City Distance Mag. Time & Date
Minimum magnitude displayed is 2.5.

Coastal Water Temperatures

Place Temperature

Nearby Weather Stations